Terminal Aerodrome Forecast
Issued by NWS Charleston, SC

Home | Current Version | Previous Version | Text Only | Print | Product List | Glossary On
Versions: 1 2 3 4 5 6 7 8 9 10 11 12 13 14 15 16 17 18 19
000
FTUS42 KCHS 031140
TAFSAV
TAF
KSAV 031140Z 0312/0412 25010KT P6SM SCT045 BKN080
     FM031600 25012G19KT P6SM SCT045 BKN080
     FM032100 23012KT P6SM VCTS SCT045CB BKN080
     FM040000 22009KT P6SM SCT080=

USA.gov is the U.S. government's official web portal to all federal, state and local government web resources and services.